createdAt,value
2022-12-05T00:00:33.543Z,60.22
2022-12-05T00:03:20.364Z,69.28
2022-12-05T00:06:07.321Z,64.30
2022-12-05T00:08:54.484Z,64.40
2022-12-05T00:11:44.698Z,62.40
2022-12-05T00:14:31.414Z,63.97
2022-12-05T00:17:17.919Z,64.63
2022-12-05T00:20:05.618Z,63.67
2022-12-05T00:22:52.467Z,67.80
2022-12-05T00:25:39.420Z,69.93
2022-12-05T00:28:27.716Z,69.70
2022-12-05T00:31:17.328Z,68.15
2022-12-05T00:34:05.207Z,68.43
2022-12-05T00:36:51.938Z,63.50
2022-12-05T00:39:39.269Z,72.38
2022-12-05T00:42:26.208Z,69.63
2022-12-05T00:48:00.269Z,74.28
2022-12-05T00:50:46.735Z,70.38
2022-12-05T00:53:34.046Z,68.50
2022-12-05T00:56:22.740Z,73.60
2022-12-05T00:59:10.031Z,63.10
2022-12-05T01:01:58.403Z,68.75
2022-12-05T01:04:45.487Z,76.53
2022-12-05T01:07:31.957Z,64.72
2022-12-05T01:10:19.137Z,67.78
2022-12-05T01:13:05.813Z,68.00
2022-12-05T01:18:39.996Z,68.25
2022-12-05T01:21:27.495Z,61.83
2022-12-05T01:24:14.545Z,63.30
2022-12-05T01:27:01.321Z,67.22
2022-12-05T01:29:48.314Z,64.65
2022-12-05T01:32:34.789Z,67.05
2022-12-05T01:35:22.636Z,63.30
2022-12-05T01:38:10.036Z,67.55
2022-12-05T01:41:04.760Z,69.15
2022-12-05T01:43:56.935Z,64.60
2022-12-05T01:46:46.439Z,66.93
2022-12-05T01:49:36.566Z,61.58
2022-12-05T01:52:27.665Z,65.40
2022-12-05T01:55:17.563Z,64.65
2022-12-05T01:58:06.291Z,64.10
2022-12-05T02:00:53.198Z,63.25
2022-12-05T02:03:40.913Z,55.00
2022-12-05T02:06:29.169Z,61.38
2022-12-05T02:09:17.152Z,68.97
2022-12-05T02:12:05.388Z,61.67
2022-12-05T02:15:07.272Z,66.65
2022-12-05T02:18:04.656Z,56.08
2022-12-05T02:21:16.412Z,52.47
2022-12-05T02:24:35.994Z,62.03
2022-12-05T02:27:49.498Z,60.55
2022-12-05T02:30:41.151Z,59.25
2022-12-05T02:33:33.181Z,63.67
2022-12-05T02:36:26.848Z,62.70
2022-12-05T02:39:18.688Z,60.95
2022-12-05T02:42:10.469Z,65.15
2022-12-05T02:45:01.333Z,54.95
2022-12-05T02:47:52.646Z,58.72
2022-12-05T02:50:41.731Z,62.55
2022-12-05T02:53:30.718Z,52.67
2022-12-05T02:56:17.780Z,53.53
2022-12-05T02:59:05.442Z,61.58
2022-12-05T03:01:52.482Z,56.58
2022-12-05T03:04:40.600Z,62.33
2022-12-05T03:07:30.297Z,57.78
2022-12-05T03:10:21.493Z,63.25
2022-12-05T03:13:13.880Z,57.35
2022-12-05T03:16:04.281Z,54.95
2022-12-05T03:18:55.668Z,57.35
2022-12-05T03:21:50.912Z,50.88
2022-12-05T03:24:41.570Z,52.35
2022-12-05T03:27:36.898Z,53.25
2022-12-05T03:30:25.310Z,47.08
2022-12-05T03:33:14.673Z,56.00
2022-12-05T03:36:06.301Z,50.65
2022-12-05T03:39:00.896Z,56.10
2022-12-05T03:41:58.685Z,53.47
2022-12-05T03:44:51.490Z,53.25
2022-12-05T03:47:46.593Z,53.85
2022-12-05T03:50:36.310Z,52.03
2022-12-05T03:53:28.229Z,55.35
2022-12-05T03:56:20.956Z,46.60
2022-12-05T03:59:15.339Z,54.65
2022-12-05T04:02:08.609Z,52.10
2022-12-05T04:05:02.320Z,52.72
2022-12-05T04:07:54.372Z,50.67
2022-12-05T04:10:49.573Z,44.55
2022-12-05T04:13:41.812Z,48.97
2022-12-05T04:16:49.632Z,44.40
2022-12-05T04:20:01.007Z,47.40
2022-12-05T04:22:48.658Z,47.95
2022-12-05T04:25:42.774Z,45.40
2022-12-05T04:28:35.754Z,53.13
2022-12-05T04:31:27.162Z,49.63
2022-12-05T04:34:17.185Z,52.08
2022-12-05T04:37:08.713Z,50.17
2022-12-05T04:40:00.105Z,52.70
2022-12-05T04:42:51.301Z,46.38
2022-12-05T04:45:42.129Z,47.10
2022-12-05T04:48:31.786Z,45.67
2022-12-05T04:51:21.839Z,55.55
2022-12-05T04:54:15.775Z,47.95
2022-12-05T04:57:09.191Z,51.88
2022-12-05T04:59:57.187Z,41.15
2022-12-05T05:02:49.166Z,43.60
2022-12-05T05:05:39.939Z,46.75
2022-12-05T05:08:29.267Z,48.10
2022-12-05T05:11:19.730Z,48.35
2022-12-05T05:14:07.439Z,50.03
2022-12-05T05:16:54.668Z,50.92
2022-12-05T05:19:41.923Z,46.22
2022-12-05T05:22:30.239Z,46.22
2022-12-05T05:25:17.453Z,49.95
2022-12-05T05:28:04.948Z,47.17
2022-12-05T05:30:51.820Z,53.92
2022-12-05T05:33:39.254Z,54.00
2022-12-05T05:36:28.153Z,49.63
2022-12-05T05:39:16.961Z,47.00
2022-12-05T05:42:03.747Z,40.67
2022-12-05T05:44:50.761Z,44.20
2022-12-05T05:47:37.789Z,46.72
2022-12-05T05:50:24.874Z,56.15
2022-12-05T05:53:12.084Z,52.40
2022-12-05T05:56:04.139Z,56.42
2022-12-05T05:58:57.059Z,57.53
2022-12-05T06:01:44.276Z,58.50
2022-12-05T06:04:31.582Z,53.20
2022-12-05T06:07:18.401Z,52.35
2022-12-05T06:10:06.663Z,49.85
2022-12-05T06:12:55.227Z,49.92
2022-12-05T06:15:42.106Z,53.78
2022-12-05T06:18:29.187Z,53.20
2022-12-05T06:21:16.625Z,48.80
2022-12-05T06:24:03.984Z,52.03
2022-12-05T06:26:50.901Z,49.45
2022-12-05T06:29:39.792Z,45.13
2022-12-05T06:32:26.725Z,56.38
2022-12-05T06:35:16.608Z,49.78
2022-12-05T06:38:04.185Z,41.17
2022-12-05T06:40:51.119Z,54.53
2022-12-05T06:43:37.881Z,46.17
2022-12-05T06:46:27.670Z,49.17
2022-12-05T06:49:15.014Z,48.55
2022-12-05T06:52:02.420Z,47.20
2022-12-05T06:54:49.384Z,46.72
2022-12-05T06:57:36.718Z,53.42
2022-12-05T07:00:41.206Z,47.33
2022-12-05T07:03:29.654Z,52.55
2022-12-05T07:06:17.420Z,45.72
2022-12-05T07:09:05.478Z,46.40
2022-12-05T07:11:52.996Z,46.13
2022-12-05T07:14:47.681Z,41.67
2022-12-05T07:17:37.680Z,42.22
2022-12-05T07:20:30.318Z,45.15
2022-12-05T07:23:30.213Z,44.78
2022-12-05T07:26:20.302Z,43.85
2022-12-05T07:29:07.521Z,43.13
2022-12-05T07:31:55.579Z,43.97
2022-12-05T07:34:42.620Z,45.78
2022-12-05T07:37:31.355Z,44.47
2022-12-05T07:40:18.966Z,43.45
2022-12-05T07:43:06.248Z,46.17
2022-12-05T07:45:53.082Z,48.53
2022-12-05T07:48:40.552Z,39.33
2022-12-05T07:51:27.416Z,47.17
2022-12-05T07:54:16.151Z,51.33
2022-12-05T07:57:03.341Z,44.97
2022-12-05T07:59:50.664Z,47.75
2022-12-05T08:02:40.629Z,47.85
2022-12-05T08:05:27.999Z,42.67
2022-12-05T08:08:15.437Z,46.80
2022-12-05T08:11:06.425Z,45.40
2022-12-05T08:13:54.103Z,44.53
2022-12-05T08:16:41.196Z,46.00
2022-12-05T08:19:28.074Z,43.78
2022-12-05T08:22:15.147Z,43.20
2022-12-05T08:25:02.463Z,45.05
2022-12-05T08:27:50.812Z,46.72
2022-12-05T08:30:38.157Z,45.88
2022-12-05T08:33:24.918Z,43.90
2022-12-05T08:36:15.368Z,45.97
2022-12-05T08:39:05.307Z,44.88
2022-12-05T08:41:52.328Z,45.03
2022-12-05T08:44:40.973Z,43.88
2022-12-05T08:47:28.492Z,46.78
2022-12-05T08:50:15.604Z,45.45
2022-12-05T08:53:02.888Z,36.42
2022-12-05T08:55:50.037Z,40.72
2022-12-05T08:58:37.332Z,43.60
2022-12-05T09:01:26.231Z,41.75
2022-12-05T09:04:13.520Z,39.97
2022-12-05T09:07:03.122Z,50.03
2022-12-05T09:09:50.087Z,36.85
2022-12-05T09:12:37.570Z,44.63
2022-12-05T09:15:24.961Z,44.40
2022-12-05T09:18:13.324Z,43.85
2022-12-05T09:21:05.831Z,45.13
2022-12-05T09:23:53.245Z,44.60
2022-12-05T09:26:40.800Z,43.97
2022-12-05T09:29:29.577Z,43.97
2022-12-05T09:32:16.634Z,49.75
2022-12-05T09:35:05.464Z,46.40
2022-12-05T09:37:52.084Z,43.95
2022-12-05T09:40:43.017Z,43.03
2022-12-05T09:43:38.404Z,42.15
2022-12-05T09:46:49.557Z,43.97
2022-12-05T09:49:45.294Z,41.67
2022-12-05T09:52:39.001Z,47.28
2022-12-05T09:55:26.419Z,44.13
2022-12-05T09:58:28.570Z,40.40
2022-12-05T10:01:39.025Z,42.65
2022-12-05T10:04:47.529Z,41.92
2022-12-05T10:07:42.119Z,37.38
2022-12-05T10:10:45.968Z,46.83
2022-12-05T10:13:47.949Z,45.28
2022-12-05T10:16:39.910Z,43.33
2022-12-05T10:19:32.225Z,39.95
2022-12-05T10:22:25.963Z,42.17
2022-12-05T10:25:17.944Z,40.10
2022-12-05T10:28:14.140Z,43.45
2022-12-05T10:31:06.810Z,44.75
2022-12-05T10:33:59.510Z,43.53
2022-12-05T10:36:54.815Z,41.35
2022-12-05T10:39:42.358Z,50.28
2022-12-05T10:42:33.206Z,41.78
2022-12-05T10:45:23.622Z,38.25
2022-12-05T10:48:13.546Z,45.00
2022-12-05T10:51:01.068Z,44.83
2022-12-05T10:53:50.571Z,42.58
2022-12-05T10:56:39.219Z,42.05
2022-12-05T10:59:44.814Z,42.55
2022-12-05T11:02:34.695Z,41.57
2022-12-05T11:05:30.386Z,45.47
2022-12-05T11:08:41.720Z,45.30
2022-12-05T11:11:33.801Z,39.60
2022-12-05T11:14:25.013Z,45.13
2022-12-05T11:17:26.420Z,39.85
2022-12-05T11:20:35.797Z,43.45
2022-12-05T11:23:26.902Z,46.15
2022-12-05T11:26:36.151Z,48.20
2022-12-05T11:29:32.233Z,50.42
2022-12-05T11:32:23.380Z,46.10
2022-12-05T11:35:24.287Z,40.85
2022-12-05T11:38:13.661Z,44.45
2022-12-05T11:41:13.484Z,43.80
2022-12-05T11:44:19.210Z,42.45
2022-12-05T11:47:20.365Z,44.05
2022-12-05T11:50:26.946Z,46.95
2022-12-05T11:53:41.441Z,42.85
2022-12-05T11:56:38.456Z,42.60
2022-12-05T11:59:47.233Z,47.00
2022-12-05T12:02:53.408Z,47.97
2022-12-05T12:05:51.204Z,44.25
2022-12-05T12:08:52.203Z,40.90
2022-12-05T12:11:46.421Z,41.13
2022-12-05T12:14:46.789Z,43.85
2022-12-05T12:17:44.161Z,42.83
2022-12-05T12:20:45.691Z,42.08
2022-12-05T12:23:44.899Z,48.30
2022-12-05T12:26:43.339Z,39.80
2022-12-05T12:29:45.688Z,43.85
2022-12-05T12:32:41.844Z,40.80
2022-12-05T12:35:31.036Z,39.58
2022-12-05T12:39:06.045Z,45.42
2022-12-05T12:42:15.660Z,43.42
2022-12-05T12:45:48.019Z,47.28
2022-12-05T12:48:47.671Z,44.97
2022-12-05T12:51:34.833Z,47.15
2022-12-05T12:55:05.082Z,46.45
2022-12-05T12:58:05.105Z,52.58
2022-12-05T13:01:02.579Z,43.75
2022-12-05T13:03:54.076Z,48.67
2022-12-05T13:06:46.282Z,44.50
2022-12-05T13:09:38.560Z,41.72
2022-12-05T13:12:29.609Z,45.65
2022-12-05T13:15:23.189Z,47.47
2022-12-05T13:18:17.338Z,52.00
2022-12-05T13:21:08.448Z,43.80
2022-12-05T13:24:03.313Z,44.10
2022-12-05T13:26:51.359Z,43.50
2022-12-05T13:29:43.489Z,43.38
2022-12-05T13:32:34.658Z,39.30
2022-12-05T13:35:42.893Z,42.45
2022-12-05T13:38:49.672Z,41.08
2022-12-05T13:41:59.699Z,47.72
2022-12-05T13:44:51.181Z,39.30
2022-12-05T13:47:50.532Z,43.03
2022-12-05T13:50:46.130Z,46.20
2022-12-05T13:53:38.727Z,49.67
2022-12-05T13:56:28.798Z,47.17
2022-12-05T14:00:05.095Z,49.63
2022-12-05T14:03:08.616Z,48.58
2022-12-05T14:05:56.737Z,52.65
2022-12-05T14:08:58.904Z,58.83
2022-12-05T14:12:32.333Z,52.45
2022-12-05T14:15:31.267Z,50.42
2022-12-05T14:18:25.869Z,49.65
2022-12-05T14:21:18.011Z,48.70
2022-12-05T14:24:13.514Z,53.40
2022-12-05T14:27:08.689Z,48.15
2022-12-05T14:30:03.748Z,49.22
2022-12-05T14:32:54.028Z,46.72
2022-12-05T14:35:47.866Z,46.53
2022-12-05T14:38:37.936Z,48.17
2022-12-05T14:41:32.545Z,49.22
2022-12-05T14:44:21.206Z,45.50
2022-12-05T14:47:18.999Z,52.53
2022-12-05T14:50:34.757Z,53.53
2022-12-05T14:53:38.839Z,52.90
2022-12-05T14:56:28.556Z,61.28
2022-12-05T14:59:25.948Z,55.63
2022-12-05T15:02:21.375Z,60.70
2022-12-05T15:05:22.141Z,72.05
2022-12-05T15:08:15.571Z,69.70
2022-12-05T15:11:04.223Z,66.90
2022-12-05T15:13:51.257Z,61.22
2022-12-05T15:16:41.532Z,57.63
2022-12-05T15:19:32.728Z,52.95
2022-12-05T15:22:22.552Z,54.38
2022-12-05T15:25:31.540Z,53.03
2022-12-05T15:28:21.294Z,53.45
2022-12-05T15:31:12.819Z,46.83
2022-12-05T15:34:04.215Z,60.70
2022-12-05T15:36:56.883Z,58.72
2022-12-05T15:39:58.863Z,59.10
2022-12-05T15:42:47.626Z,57.40
2022-12-05T15:45:36.214Z,52.08
2022-12-05T15:48:23.506Z,60.55
2022-12-05T15:51:10.653Z,53.33
2022-12-05T15:54:02.443Z,46.60
2022-12-05T15:56:53.950Z,51.63
2022-12-05T15:59:46.234Z,50.03
2022-12-05T16:02:42.073Z,58.10
2022-12-05T16:05:33.227Z,64.90
2022-12-05T16:08:20.954Z,55.83
2022-12-05T16:11:10.035Z,62.58
2022-12-05T16:13:59.781Z,64.88
2022-12-05T16:16:47.466Z,63.47
2022-12-05T16:19:36.690Z,78.18
2022-12-05T16:22:26.489Z,70.93
2022-12-05T16:25:16.974Z,75.20
2022-12-05T16:28:17.215Z,65.28
2022-12-05T16:31:06.490Z,58.88
2022-12-05T16:34:03.157Z,66.30
2022-12-05T16:36:52.546Z,61.92
2022-12-05T16:39:45.342Z,62.88
2022-12-05T16:42:32.455Z,76.07
2022-12-05T16:45:40.373Z,72.43
2022-12-05T16:48:28.923Z,59.22
2022-12-05T16:51:21.293Z,60.75
2022-12-05T16:54:10.745Z,65.43
2022-12-05T16:56:59.590Z,64.75
2022-12-05T16:59:48.659Z,68.05
2022-12-05T17:02:35.614Z,68.82
2022-12-05T17:05:22.793Z,65.55
2022-12-05T17:08:09.820Z,65.03
2022-12-05T17:10:58.944Z,65.82
2022-12-05T17:13:48.478Z,69.40
2022-12-05T17:16:35.621Z,62.30
2022-12-05T17:19:23.303Z,66.95
2022-12-05T17:22:10.286Z,56.22
2022-12-05T17:25:00.003Z,57.33
2022-12-05T17:27:48.997Z,59.53
2022-12-05T17:30:37.939Z,60.90
2022-12-05T17:33:26.549Z,57.72
2022-12-05T17:36:13.766Z,59.05
2022-12-05T17:39:01.150Z,74.88
2022-12-05T17:41:48.220Z,69.88
2022-12-05T17:44:36.957Z,63.17
2022-12-05T17:47:24.168Z,61.30
2022-12-05T17:50:14.392Z,76.70
2022-12-05T17:53:07.074Z,117.28
2022-12-05T17:55:54.734Z,118.72
2022-12-05T17:58:42.160Z,135.20
2022-12-05T18:01:32.959Z,140.65
2022-12-05T18:04:23.059Z,209.60
2022-12-05T18:07:10.682Z,171.15
2022-12-05T18:09:58.212Z,186.55
2022-12-05T18:12:44.997Z,180.18
2022-12-05T18:15:31.740Z,193.02
2022-12-05T18:18:21.699Z,176.32
2022-12-05T18:21:10.072Z,148.35
2022-12-05T18:23:57.283Z,177.18
2022-12-05T18:26:44.443Z,156.15
2022-12-05T18:29:31.818Z,136.45
2022-12-05T18:32:19.772Z,140.85
2022-12-05T18:35:14.102Z,132.35
2022-12-05T18:38:01.004Z,98.05
2022-12-05T18:40:47.976Z,83.20
2022-12-05T18:43:35.841Z,76.32
2022-12-05T18:46:22.971Z,74.90
2022-12-05T18:49:12.939Z,71.40
2022-12-05T18:52:01.724Z,79.47
2022-12-05T18:55:03.003Z,73.35
2022-12-05T18:57:59.131Z,65.28
2022-12-05T19:00:46.391Z,70.25
2022-12-05T19:03:33.742Z,81.43
2022-12-05T19:06:23.034Z,86.22
2022-12-05T19:09:15.413Z,80.90
2022-12-05T19:12:02.452Z,76.75
2022-12-05T19:14:49.198Z,87.47
2022-12-05T19:17:36.361Z,84.97
2022-12-05T19:20:26.345Z,77.45
2022-12-05T19:23:13.196Z,75.22
2022-12-05T19:26:03.327Z,71.45
2022-12-05T19:28:50.629Z,71.57
2022-12-05T19:31:37.702Z,72.32
2022-12-05T19:34:24.986Z,65.93
2022-12-05T19:37:12.053Z,69.07
2022-12-05T19:39:59.395Z,70.35
2022-12-05T19:42:47.983Z,69.53
2022-12-05T19:45:34.898Z,67.60
2022-12-05T19:48:21.872Z,81.75
2022-12-05T19:51:09.462Z,76.25
2022-12-05T19:53:56.810Z,79.18
2022-12-05T19:56:43.532Z,81.05
2022-12-05T19:59:32.112Z,81.60
2022-12-05T20:02:18.990Z,93.72
2022-12-05T20:05:06.886Z,82.95
2022-12-05T20:07:54.373Z,88.95
2022-12-05T20:10:41.622Z,116.03
2022-12-05T20:16:37.311Z,141.25
2022-12-05T20:19:24.497Z,105.72
2022-12-05T20:22:11.484Z,103.03
2022-12-05T20:24:58.868Z,99.25
2022-12-05T20:27:46.781Z,94.35
2022-12-05T20:30:34.250Z,80.75
2022-12-05T20:33:22.567Z,76.53
2022-12-05T20:36:12.405Z,85.85
2022-12-05T20:39:01.586Z,107.32
2022-12-05T20:41:50.690Z,89.00
2022-12-05T20:44:37.858Z,79.80
2022-12-05T20:47:24.871Z,80.45
2022-12-05T20:50:14.731Z,78.80
2022-12-05T20:53:01.624Z,86.13
2022-12-05T20:55:48.407Z,84.47
2022-12-05T20:58:35.866Z,79.90
2022-12-05T21:01:24.728Z,86.90
2022-12-05T21:04:13.062Z,83.90
2022-12-05T21:07:01.412Z,118.90
2022-12-05T21:09:48.152Z,104.07
2022-12-05T21:12:35.317Z,100.97
2022-12-05T21:15:22.477Z,107.93
2022-12-05T21:18:09.615Z,139.90
2022-12-05T21:21:00.832Z,143.73
2022-12-05T21:23:54.126Z,181.70
2022-12-05T21:26:41.455Z,159.90
2022-12-05T21:29:28.495Z,139.50
2022-12-05T21:32:15.640Z,128.00
2022-12-05T21:35:03.503Z,189.55
2022-12-05T21:37:50.628Z,143.38
2022-12-05T21:40:39.220Z,139.23
2022-12-05T21:43:26.317Z,144.02
2022-12-05T21:46:13.677Z,135.90
2022-12-05T21:49:00.870Z,128.27
2022-12-05T21:51:47.987Z,125.38
2022-12-05T21:54:35.225Z,123.05
2022-12-05T21:57:23.721Z,118.38
2022-12-05T22:00:11.694Z,121.35
2022-12-05T22:02:58.904Z,113.93
2022-12-05T22:05:45.982Z,119.53
2022-12-05T22:08:33.808Z,113.30
2022-12-05T22:11:22.432Z,103.45
2022-12-05T22:14:10.840Z,104.43
2022-12-05T22:16:57.918Z,102.35
2022-12-05T22:19:45.119Z,97.35
2022-12-05T22:22:32.402Z,94.78
2022-12-05T22:25:19.453Z,102.03
2022-12-05T22:28:06.554Z,96.25
2022-12-05T22:30:55.323Z,83.15
2022-12-05T22:33:42.437Z,81.38
2022-12-05T22:36:29.953Z,86.22
2022-12-05T22:39:16.810Z,79.90
2022-12-05T22:42:04.147Z,86.70
2022-12-05T22:44:51.178Z,86.10
2022-12-05T22:47:39.690Z,76.57
2022-12-05T22:50:26.923Z,84.10
2022-12-05T22:53:13.804Z,89.55
2022-12-05T22:56:04.210Z,86.70
2022-12-05T22:58:54.930Z,84.90
2022-12-05T23:01:42.217Z,86.95
2022-12-05T23:04:31.184Z,83.45
2022-12-05T23:07:18.194Z,85.63
2022-12-05T23:10:06.124Z,78.88
2022-12-05T23:12:53.499Z,79.88
2022-12-05T23:15:42.396Z,83.75
2022-12-05T23:18:29.550Z,86.32
2022-12-05T23:21:20.429Z,76.13
2022-12-05T23:24:09.944Z,83.10
2022-12-05T23:26:57.141Z,85.60
2022-12-05T23:29:44.267Z,86.10
2022-12-05T23:32:31.528Z,82.30
2022-12-05T23:35:18.876Z,74.97
2022-12-05T23:38:07.078Z,80.68
2022-12-05T23:41:01.758Z,79.07
2022-12-05T23:43:50.546Z,80.38
2022-12-05T23:46:37.609Z,82.10
2022-12-05T23:49:24.371Z,83.72
2022-12-05T23:52:11.318Z,86.43
2022-12-05T23:55:00.126Z,80.75
2022-12-05T23:57:47.322Z,82.35
